sensor_id;sensor_type;location;lat;lon;timestamp;P1;P2;P0
45112;PMS5003;30873;53.908;27.576;2023-07-29T00:00:42;12.5;11.5;8.3
45112;PMS5003;30873;53.908;27.576;2023-07-29T00:05:13;13;11.6;8.1
45112;PMS5003;30873;53.908;27.576;2023-07-29T00:10:10;13.4;11.8;8
45112;PMS5003;30873;53.908;27.576;2023-07-29T00:15:58;11.8;11.1;7.6
45112;PMS5003;30873;53.908;27.576;2023-07-29T00:20:24;12.9;11.2;7.8
45112;PMS5003;30873;53.908;27.576;2023-07-29T00:25:58;13.2;11.9;8.5
45112;PMS5003;30873;53.908;27.576;2023-07-29T00:30:58;13.5;11.1;7.8
45112;PMS5003;30873;53.908;27.576;2023-07-29T00:35:40;12;10.5;7.6
45112;PMS5003;30873;53.908;27.576;2023-07-29T00:40:27;11.6;10.6;7.9
45112;PMS5003;30873;53.908;27.576;2023-07-29T00:45:10;11.8;10.9;7.9
45112;PMS5003;30873;53.908;27.576;2023-07-29T00:50:56;12.2;11.2;8.3
45112;PMS5003;30873;53.908;27.576;2023-07-29T00:55:30;13.5;12.6;9.1
45112;PMS5003;30873;53.908;27.576;2023-07-29T01:00:28;12.4;11.6;8.6
45112;PMS5003;30873;53.908;27.576;2023-07-29T01:05:46;15.1;14.2;10.7
45112;PMS5003;30873;53.908;27.576;2023-07-29T01:10:58;14.5;12.9;9.3
45112;PMS5003;30873;53.908;27.576;2023-07-29T01:15:14;13.8;11.9;8.4
45112;PMS5003;30873;53.908;27.576;2023-07-29T01:20:26;14.5;13.4;9.4
45112;PMS5003;30873;53.908;27.576;2023-07-29T01:25:42;17.2;14.9;10.7
45112;PMS5003;30873;53.908;27.576;2023-07-29T01:30:42;16;14.9;10.1
45112;PMS5003;30873;53.908;27.576;2023-07-29T01:35:13;19;17.6;11.4
45112;PMS5003;30873;53.908;27.576;2023-07-29T01:40:10;19.6;17.7;11.8
45112;PMS5003;30873;53.908;27.576;2023-07-29T01:45:44;21.7;19.5;12.7
45112;PMS5003;30873;53.908;27.576;2023-07-29T01:50:20;21.8;20.3;13
45112;PMS5003;30873;53.908;27.576;2023-07-29T01:55:10;25.1;22.7;14.8
45112;PMS5003;30873;53.908;27.576;2023-07-29T02:00:58;22.8;20.8;13.6
45112;PMS5003;30873;53.908;27.576;2023-07-29T02:05:42;24.6;21.6;14.6
45112;PMS5003;30873;53.908;27.576;2023-07-29T02:10:28;22.2;20.9;14.8
45112;PMS5003;30873;53.908;27.576;2023-07-29T02:15:24;23.9;20.9;13.7
45112;PMS5003;30873;53.908;27.576;2023-07-29T02:20:28;22.9;19.2;13.6
45112;PMS5003;30873;53.908;27.576;2023-07-29T02:25:14;24.1;22;16.1
45112;PMS5003;30873;53.908;27.576;2023-07-29T02:30:10;23.1;21.6;15.3
45112;PMS5003;30873;53.908;27.576;2023-07-29T02:35:28;25;22.6;17.2
45112;PMS5003;30873;53.908;27.576;2023-07-29T02:40:30;28.4;26.7;21.7
45112;PMS5003;30873;53.908;27.576;2023-07-29T02:45:58;27;25.7;19.2
45112;PMS5003;30873;53.908;27.576;2023-07-29T02:50:10;22;19.9;14.3
45112;PMS5003;30873;53.908;27.576;2023-07-29T02:55:10;22;21.2;15.1
45112;PMS5003;30873;53.908;27.576;2023-07-29T03:01:00;21.6;19.2;14.2
45112;PMS5003;30873;53.908;27.576;2023-07-29T03:05:58;22.9;20.6;15.3
45112;PMS5003;30873;53.908;27.576;2023-07-29T03:10:28;22.2;20.7;13.7
45112;PMS5003;30873;53.908;27.576;2023-07-29T03:15:28;21.6;18.6;11.7
45112;PMS5003;30873;53.908;27.576;2023-07-29T03:20:56;19.8;17.9;11.9
45112;PMS5003;30873;53.908;27.576;2023-07-29T03:25:14;17;15.3;9.9
45112;PMS5003;30873;53.908;27.576;2023-07-29T03:30:10;18.2;15.6;10.5
45112;PMS5003;30873;53.908;27.576;2023-07-29T03:35:40;17.6;15.7;10.3
45112;PMS5003;30873;53.908;27.576;2023-07-29T03:40:44;16.1;14.1;9.8
45112;PMS5003;30873;53.908;27.576;2023-07-29T03:45:58;17.2;14.6;9.6
45112;PMS5003;30873;53.908;27.576;2023-07-29T03:50:28;15.3;14.2;9.6
45112;PMS5003;30873;53.908;27.576;2023-07-29T03:55:58;15.6;14.3;9.2
45112;PMS5003;30873;53.908;27.576;2023-07-29T04:00:14;15.5;14;9
45112;PMS5003;30873;53.908;27.576;2023-07-29T04:05:58;15.1;13.5;9.5
45112;PMS5003;30873;53.908;27.576;2023-07-29T04:10:42;15.4;13.1;9.1
45112;PMS5003;30873;53.908;27.576;2023-07-29T04:15:44;13.4;12.7;8.2
45112;PMS5003;30873;53.908;27.576;2023-07-29T04:20:42;15.2;13.6;9.1
45112;PMS5003;30873;53.908;27.576;2023-07-29T04:25:42;15.8;13.3;8.6
45112;PMS5003;30873;53.908;27.576;2023-07-29T04:30:14;14.7;13.1;8.6
45112;PMS5003;30873;53.908;27.576;2023-07-29T04:35:10;14.2;12.9;8.6
45112;PMS5003;30873;53.908;27.576;2023-07-29T04:40:58;13.3;12;8.6
45112;PMS5003;30873;53.908;27.576;2023-07-29T04:45:42;13.5;11.8;8.5
45112;PMS5003;30873;53.908;27.576;2023-07-29T04:50:58;14.2;12.2;9
45112;PMS5003;30873;53.908;27.576;2023-07-29T04:55:58;13.1;12.2;8.5
45112;PMS5003;30873;53.908;27.576;2023-07-29T05:00:42;14.4;12.8;8.3
45112;PMS5003;30873;53.908;27.576;2023-07-29T05:05:14;13.6;11.8;7.8
45112;PMS5003;30873;53.908;27.576;2023-07-29T05:10:14;12.9;11;7.8
45112;PMS5003;30873;53.908;27.576;2023-07-29T05:15:58;12.6;11.5;8
45112;PMS5003;30873;53.908;27.576;2023-07-29T05:20:42;12.5;11.4;7.2
45112;PMS5003;30873;53.908;27.576;2023-07-29T05:25:14;12.3;11.1;6.6
45112;PMS5003;30873;53.908;27.576;2023-07-29T05:30:56;12.4;11.3;7.1
45112;PMS5003;30873;53.908;27.576;2023-07-29T05:35:58;12;10.9;6.9
45112;PMS5003;30873;53.908;27.576;2023-07-29T05:40:26;12.5;10.8;7.2
45112;PMS5003;30873;53.908;27.576;2023-07-29T05:45:10;11.4;10.6;6.6
45112;PMS5003;30873;53.908;27.576;2023-07-29T05:50:38;11.4;10.3;6.1
45112;PMS5003;30873;53.908;27.576;2023-07-29T05:55:30;9.7;9;5.3
45112;PMS5003;30873;53.908;27.576;2023-07-29T06:00:10;9.6;8.6;5.2
45112;PMS5003;30873;53.908;27.576;2023-07-29T06:05:22;10.3;9.6;5.5
45112;PMS5003;30873;53.908;27.576;2023-07-29T06:10:40;10.6;9.7;5.4
45112;PMS5003;30873;53.908;27.576;2023-07-29T06:15:14;9.9;9.3;5.6
45112;PMS5003;30873;53.908;27.576;2023-07-29T06:20:20;11.1;9.6;6
45112;PMS5003;30873;53.908;27.576;2023-07-29T06:25:58;11.5;10.9;6.6
45112;PMS5003;30873;53.908;27.576;2023-07-29T06:30:12;12.5;10.9;6.9
45112;PMS5003;30873;53.908;27.576;2023-07-29T06:35:58;11.6;10.9;6.9
45112;PMS5003;30873;53.908;27.576;2023-07-29T06:40:10;12;10.8;7
45112;PMS5003;30873;53.908;27.576;2023-07-29T06:45:10;12.7;11.2;7
45112;PMS5003;30873;53.908;27.576;2023-07-29T06:50:56;12.1;11.3;6.8
45112;PMS5003;30873;53.908;27.576;2023-07-29T06:55:42;12;11.1;7.7
45112;PMS5003;30873;53.908;27.576;2023-07-29T07:00:26;12.8;12.1;7.8
45112;PMS5003;30873;53.908;27.576;2023-07-29T07:05:20;14.4;12.2;8.3
45112;PMS5003;30873;53.908;27.576;2023-07-29T07:10:30;11.8;11.1;6.9
45112;PMS5003;30873;53.908;27.576;2023-07-29T07:15:20;12.6;11.3;7.5
45112;PMS5003;30873;53.908;27.576;2023-07-29T07:20:47;12.4;11.5;7.3
45112;PMS5003;30873;53.908;27.576;2023-07-29T07:25:58;22.3;20.4;15.5
45112;PMS5003;30873;53.908;27.576;2023-07-29T07:30:58;25.3;24.1;19.8
45112;PMS5003;30873;53.908;27.576;2023-07-29T07:35:20;13.1;12.3;8.9
45112;PMS5003;30873;53.908;27.576;2023-07-29T07:40:10;10.9;9.6;5.6
45112;PMS5003;30873;53.908;27.576;2023-07-29T07:45:57;8.7;8.1;5.9
45112;PMS5003;30873;53.908;27.576;2023-07-29T07:50:40;9.7;9;5.9
45112;PMS5003;30873;53.908;27.576;2023-07-29T07:55:10;10.3;9.2;6.2
45112;PMS5003;30873;53.908;27.576;2023-07-29T08:00:40;8.2;7.4;5.2
45112;PMS5003;30873;53.908;27.576;2023-07-29T08:05:44;7.9;7.3;4.7
45112;PMS5003;30873;53.908;27.576;2023-07-29T08:10:56;6.8;6;4.3
45112;PMS5003;30873;53.908;27.576;2023-07-29T08:15:45;7.8;7;4.9
45112;PMS5003;30873;53.908;27.576;2023-07-29T08:20:51;7.9;6.8;4.7
45112;PMS5003;30873;53.908;27.576;2023-07-29T08:25:24;7.7;7.3;5.2
45112;PMS5003;30873;53.908;27.576;2023-07-29T08:30:56;8.2;7.7;5.1
45112;PMS5003;30873;53.908;27.576;2023-07-29T08:35:40;8.5;8;5.6
45112;PMS5003;30873;53.908;27.576;2023-07-29T08:40:45;7.5;7;5.2
45112;PMS5003;30873;53.908;27.576;2023-07-29T08:45:26;8.7;7.9;5.7
45112;PMS5003;30873;53.908;27.576;2023-07-29T08:50:40;8;7.2;5.1
45112;PMS5003;30873;53.908;27.576;2023-07-29T08:55:28;8.3;8;5.5
45112;PMS5003;30873;53.908;27.576;2023-07-29T09:00:24;9.7;8.4;5.8
45112;PMS5003;30873;53.908;27.576;2023-07-29T09:05:56;8.7;7.7;5.6
45112;PMS5003;30873;53.908;27.576;2023-07-29T09:10:40;7.1;7;5.1
45112;PMS5003;30873;53.908;27.576;2023-07-29T09:15:56;8.8;7.8;5.7
45112;PMS5003;30873;53.908;27.576;2023-07-29T09:20:58;9.6;8.6;6.3
45112;PMS5003;30873;53.908;27.576;2023-07-29T09:25:40;11.1;9.9;7.6
45112;PMS5003;30873;53.908;27.576;2023-07-29T09:30:24;11.2;10.7;7.8
45112;PMS5003;30873;53.908;27.576;2023-07-29T09:35:10;10.5;10;7.4
45112;PMS5003;30873;53.908;27.576;2023-07-29T09:40:54;10.3;9.9;7.4
45112;PMS5003;30873;53.908;27.576;2023-07-29T09:45:40;10.4;9.4;7.1
45112;PMS5003;30873;53.908;27.576;2023-07-29T09:50:44;10.8;10.5;7.7
45112;PMS5003;30873;53.908;27.576;2023-07-29T09:55:56;10.3;9.8;7.8
45112;PMS5003;30873;53.908;27.576;2023-07-29T10:00:56;10.9;10.2;7.6
45112;PMS5003;30873;53.908;27.576;2023-07-29T10:05:20;11;10.4;7.9
45112;PMS5003;30873;53.908;27.576;2023-07-29T10:10:24;8.8;8.7;6.4
45112;PMS5003;30873;53.908;27.576;2023-07-29T10:15:56;10.7;10.5;7.8
45112;PMS5003;30873;53.908;27.576;2023-07-29T10:20:36;9.9;9.2;7
45112;PMS5003;30873;53.908;27.576;2023-07-29T10:25:57;8.6;8;6.1
45112;PMS5003;30873;53.908;27.576;2023-07-29T10:30:28;10.5;10;7.9
45112;PMS5003;30873;53.908;27.576;2023-07-29T10:35:24;19.2;17.8;14.6
45112;PMS5003;30873;53.908;27.576;2023-07-29T10:40:14;16.7;15.1;12.5
45112;PMS5003;30873;53.908;27.576;2023-07-29T10:45:24;10.2;9.4;6.8
45112;PMS5003;30873;53.908;27.576;2023-07-29T10:51:10;8.8;8.3;6.3
45112;PMS5003;30873;53.908;27.576;2023-07-29T10:55:40;8.7;8.2;6.2
45112;PMS5003;30873;53.908;27.576;2023-07-29T11:00:56;8.3;7.9;6.2
45112;PMS5003;30873;53.908;27.576;2023-07-29T11:05:41;8.3;8.3;6.4
45112;PMS5003;30873;53.908;27.576;2023-07-29T11:10:24;9.8;9.4;7.2
45112;PMS5003;30873;53.908;27.576;2023-07-29T11:15:15;10.2;9.8;7.4
45112;PMS5003;30873;53.908;27.576;2023-07-29T11:20:10;9.3;9;6.6
45112;PMS5003;30873;53.908;27.576;2023-07-29T11:25:14;10.3;9.5;7.1
45112;PMS5003;30873;53.908;27.576;2023-07-29T11:30:13;9.9;9.5;7.7
45112;PMS5003;30873;53.908;27.576;2023-07-29T11:35:56;10.6;9.9;7.4
45112;PMS5003;30873;53.908;27.576;2023-07-29T11:40:28;8.5;7.8;5.7
45112;PMS5003;30873;53.908;27.576;2023-07-29T11:45:28;8.5;8.1;6.2
45112;PMS5003;30873;53.908;27.576;2023-07-29T11:50:54;8.9;8.6;6.2
45112;PMS5003;30873;53.908;27.576;2023-07-29T11:55:24;7.4;7;5.3
45112;PMS5003;30873;53.908;27.576;2023-07-29T12:00:28;9.5;9.3;7.4
45112;PMS5003;30873;53.908;27.576;2023-07-29T12:05:44;21.4;20.4;16.1
45112;PMS5003;30873;53.908;27.576;2023-07-29T12:10:44;9.5;8.6;6.3
45112;PMS5003;30873;53.908;27.576;2023-07-29T12:15:22;18.8;17.6;13.7
45112;PMS5003;30873;53.908;27.576;2023-07-29T12:20:29;13.4;12.7;9.9
45112;PMS5003;30873;53.908;27.576;2023-07-29T12:25:56;10.7;10.1;7.9
45112;PMS5003;30873;53.908;27.576;2023-07-29T12:30:56;11.5;10.7;8.4
45112;PMS5003;30873;53.908;27.576;2023-07-29T12:35:10;11.2;10.3;7.9
45112;PMS5003;30873;53.908;27.576;2023-07-29T12:40:24;11.1;10.6;8
45112;PMS5003;30873;53.908;27.576;2023-07-29T12:45:54;11.6;11.2;8.7
45112;PMS5003;30873;53.908;27.576;2023-07-29T12:50:24;11;10.3;7.4
45112;PMS5003;30873;53.908;27.576;2023-07-29T12:55:28;10.4;9.6;7.8
45112;PMS5003;30873;53.908;27.576;2023-07-29T13:00:40;10.3;10.1;8.1
45112;PMS5003;30873;53.908;27.576;2023-07-29T13:05:12;11.6;11.2;8.3
45112;PMS5003;30873;53.908;27.576;2023-07-29T13:10:56;11.3;10.5;8.2
45112;PMS5003;30873;53.908;27.576;2023-07-29T13:15:28;11;10.1;7.7
45112;PMS5003;30873;53.908;27.576;2023-07-29T13:20:56;11.4;11.2;8.4
45112;PMS5003;30873;53.908;27.576;2023-07-29T13:25:10;16.3;15.5;12.7
45112;PMS5003;30873;53.908;27.576;2023-07-29T13:30:56;9.8;9.2;6.9
45112;PMS5003;30873;53.908;27.576;2023-07-29T13:35:40;17.5;15.9;12.9
45112;PMS5003;30873;53.908;27.576;2023-07-29T13:40:44;22.2;21.5;18.5
45112;PMS5003;30873;53.908;27.576;2023-07-29T13:45:56;14.4;14;11.5
45112;PMS5003;30873;53.908;27.576;2023-07-29T13:50:36;25.4;24.2;19.6
45112;PMS5003;30873;53.908;27.576;2023-07-29T13:55:28;36.7;33.4;27.9
45112;PMS5003;30873;53.908;27.576;2023-07-29T14:00:28;21.4;19.6;15.2
45112;PMS5003;30873;53.908;27.576;2023-07-29T14:05:36;18.8;17;14.7
45112;PMS5003;30873;53.908;27.576;2023-07-29T14:10:18;33.3;30;25.2
45112;PMS5003;30873;53.908;27.576;2023-07-29T14:15:56;9.3;9.1;7.4
45112;PMS5003;30873;53.908;27.576;2023-07-29T14:20:56;8;7.4;5.7
45112;PMS5003;30873;53.908;27.576;2023-07-29T14:25:40;7.9;7.3;5.5
45112;PMS5003;30873;53.908;27.576;2023-07-29T14:30:24;8.8;8.7;6.9
45112;PMS5003;30873;53.908;27.576;2023-07-29T14:35:20;7.8;7.6;5.6
45112;PMS5003;30873;53.908;27.576;2023-07-29T14:40:40;8.5;8.2;6.6
45112;PMS5003;30873;53.908;27.576;2023-07-29T14:45:40;8.3;7.7;6.1
45112;PMS5003;30873;53.908;27.576;2023-07-29T14:50:44;6.7;6.7;5.3
45112;PMS5003;30873;53.908;27.576;2023-07-29T14:55:40;7.7;7.3;5.8
45112;PMS5003;30873;53.908;27.576;2023-07-29T15:00:56;7.5;7.2;5.8
45112;PMS5003;30873;53.908;27.576;2023-07-29T15:05:24;27.8;26;21.2
45112;PMS5003;30873;53.908;27.576;2023-07-29T15:10:22;28.2;26.7;21.3
45112;PMS5003;30873;53.908;27.576;2023-07-29T15:15:54;28.9;27.6;21.7
45112;PMS5003;30873;53.908;27.576;2023-07-29T15:20:38;8.3;7.9;5.9
45112;PMS5003;30873;53.908;27.576;2023-07-29T15:25:38;7.4;7.4;5.9
45112;PMS5003;30873;53.908;27.576;2023-07-29T15:30:12;7.8;7.6;5.8
45112;PMS5003;30873;53.908;27.576;2023-07-29T15:35:12;7.7;7.2;5.4
45112;PMS5003;30873;53.908;27.576;2023-07-29T15:40:10;9;8.4;7.2
45112;PMS5003;30873;53.908;27.576;2023-07-29T15:45:36;6.7;6.3;4.7
45112;PMS5003;30873;53.908;27.576;2023-07-29T15:50:26;9.9;9.5;7.8
45112;PMS5003;30873;53.908;27.576;2023-07-29T15:55:28;21.2;20.6;18.3
45112;PMS5003;30873;53.908;27.576;2023-07-29T16:00:54;12.2;12.1;10.9
45112;PMS5003;30873;53.908;27.576;2023-07-29T16:05:24;8.4;7.9;6.3
45112;PMS5003;30873;53.908;27.576;2023-07-29T16:10:24;8.8;8.8;6.9
45112;PMS5003;30873;53.908;27.576;2023-07-29T16:15:56;20;19.3;16.5
45112;PMS5003;30873;53.908;27.576;2023-07-29T16:20:22;9.1;8.6;6.7
45112;PMS5003;30873;53.908;27.576;2023-07-29T16:25:26;9.9;8.7;6.6
45112;PMS5003;30873;53.908;27.576;2023-07-29T16:30:40;9.9;9;7
45112;PMS5003;30873;53.908;27.576;2023-07-29T16:35:44;9.3;8.9;6.7
45112;PMS5003;30873;53.908;27.576;2023-07-29T16:40:10;9.8;9;6.7
45112;PMS5003;30873;53.908;27.576;2023-07-29T16:45:14;8.5;8.2;6.7
45112;PMS5003;30873;53.908;27.576;2023-07-29T16:50:56;8.5;8.3;6.5
45112;PMS5003;30873;53.908;27.576;2023-07-29T16:55:56;8.2;7.9;6.2
45112;PMS5003;30873;53.908;27.576;2023-07-29T17:00:10;8.9;8.1;6.2
45112;PMS5003;30873;53.908;27.576;2023-07-29T17:05:10;8.3;8;6.1
45112;PMS5003;30873;53.908;27.576;2023-07-29T17:10:56;7.3;6.9;5.2
45112;PMS5003;30873;53.908;27.576;2023-07-29T17:15:24;11.6;11.3;9.1
45112;PMS5003;30873;53.908;27.576;2023-07-29T17:20:10;15.6;14.5;11.7
45112;PMS5003;30873;53.908;27.576;2023-07-29T17:25:40;37.3;33.2;26.9
45112;PMS5003;30873;53.908;27.576;2023-07-29T17:30:48;9.8;8.8;6.8
45112;PMS5003;30873;53.908;27.576;2023-07-29T17:35:54;16;15.4;12.4
45112;PMS5003;30873;53.908;27.576;2023-07-29T17:40:10;9.3;8.4;6.4
45112;PMS5003;30873;53.908;27.576;2023-07-29T17:45:56;8.4;7.9;5.9
45112;PMS5003;30873;53.908;27.576;2023-07-29T17:50:40;9.1;8.6;6.4
45112;PMS5003;30873;53.908;27.576;2023-07-29T17:55:56;9.6;9;6.7
45112;PMS5003;30873;53.908;27.576;2023-07-29T18:00:40;8.7;8.5;6.3
45112;PMS5003;30873;53.908;27.576;2023-07-29T18:05:44;10.6;10.1;7.9
45112;PMS5003;30873;53.908;27.576;2023-07-29T18:10:54;10.6;9.8;7.3
45112;PMS5003;30873;53.908;27.576;2023-07-29T18:15:40;11.9;10.7;8
45112;PMS5003;30873;53.908;27.576;2023-07-29T18:20:10;15.9;14;10.6
45112;PMS5003;30873;53.908;27.576;2023-07-29T18:25:14;14.6;14.1;9.6
45112;PMS5003;30873;53.908;27.576;2023-07-29T18:30:56;13.7;12.8;9.5
45112;PMS5003;30873;53.908;27.576;2023-07-29T18:35:40;15.8;14.7;10.1
45112;PMS5003;30873;53.908;27.576;2023-07-29T18:40:10;14.5;13.4;8.7
45112;PMS5003;30873;53.908;27.576;2023-07-29T18:45:56;12.8;12.5;8.6
45112;PMS5003;30873;53.908;27.576;2023-07-29T18:50:56;14;13;8.8
45112;PMS5003;30873;53.908;27.576;2023-07-29T18:55:24;14.3;12.3;8.3
45112;PMS5003;30873;53.908;27.576;2023-07-29T19:00:24;14.7;14;9.1
45112;PMS5003;30873;53.908;27.576;2023-07-29T19:05:42;13.7;12.7;8.5
45112;PMS5003;30873;53.908;27.576;2023-07-29T19:10:40;14.6;13.6;9.9
45112;PMS5003;30873;53.908;27.576;2023-07-29T19:15:26;15.2;13.9;10.5
45112;PMS5003;30873;53.908;27.576;2023-07-29T19:20:24;19.2;17.5;12.6
45112;PMS5003;30873;53.908;27.576;2023-07-29T19:25:12;18;16.8;12.7
45112;PMS5003;30873;53.908;27.576;2023-07-29T19:30:24;18.5;17.3;13.2
45112;PMS5003;30873;53.908;27.576;2023-07-29T19:35:10;14.7;14;10.4
45112;PMS5003;30873;53.908;27.576;2023-07-29T19:40:58;16.5;15.2;11.5
45112;PMS5003;30873;53.908;27.576;2023-07-29T19:45:44;16.4;15.1;11.8
45112;PMS5003;30873;53.908;27.576;2023-07-29T19:50:56;16.5;15.1;11.6
45112;PMS5003;30873;53.908;27.576;2023-07-29T19:55:24;16.9;15.2;11
45112;PMS5003;30873;53.908;27.576;2023-07-29T20:00:14;15.9;14.2;10.8
45112;PMS5003;30873;53.908;27.576;2023-07-29T20:05:26;15.4;14.4;9.9
45112;PMS5003;30873;53.908;27.576;2023-07-29T20:10:54;15.2;14;10.3
45112;PMS5003;30873;53.908;27.576;2023-07-29T20:15:44;17;15.4;11.6
45112;PMS5003;30873;53.908;27.576;2023-07-29T20:20:44;17.3;15.9;12.2
45112;PMS5003;30873;53.908;27.576;2023-07-29T20:25:58;18.1;16.5;11.9
45112;PMS5003;30873;53.908;27.576;2023-07-29T20:30:28;18.6;16.9;12.5
45112;PMS5003;30873;53.908;27.576;2023-07-29T20:35:24;19;16.8;12.4
45112;PMS5003;30873;53.908;27.576;2023-07-29T20:40:58;17.3;15.2;11.5
45112;PMS5003;30873;53.908;27.576;2023-07-29T20:45:42;17.3;15.8;11.4
45112;PMS5003;30873;53.908;27.576;2023-07-29T20:50:14;17;15.5;11.6
45112;PMS5003;30873;53.908;27.576;2023-07-29T20:55:44;18.6;16.4;12.5
45112;PMS5003;30873;53.908;27.576;2023-07-29T21:00:16;16.7;15.5;11.1
45112;PMS5003;30873;53.908;27.576;2023-07-29T21:05:10;17.2;15.2;11.3
45112;PMS5003;30873;53.908;27.576;2023-07-29T21:10:10;18.9;17.9;11.9
45112;PMS5003;30873;53.908;27.576;2023-07-29T21:15:58;18.1;17.1;12.6
45112;PMS5003;30873;53.908;27.576;2023-07-29T21:20:58;17;16.2;11.1
45112;PMS5003;30873;53.908;27.576;2023-07-29T21:25:10;16.8;15.9;11.9
45112;PMS5003;30873;53.908;27.576;2023-07-29T21:30:14;21.3;18.6;14
45112;PMS5003;30873;53.908;27.576;2023-07-29T21:35:58;19.9;18.4;12.9
45112;PMS5003;30873;53.908;27.576;2023-07-29T21:40:14;19.1;17.3;12.4
45112;PMS5003;30873;53.908;27.576;2023-07-29T21:45:10;22.1;20.7;14.4
45112;PMS5003;30873;53.908;27.576;2023-07-29T21:50:40;19.6;18.6;12.9
45112;PMS5003;30873;53.908;27.576;2023-07-29T21:55:44;18.6;17;11.9
45112;PMS5003;30873;53.908;27.576;2023-07-29T22:00:58;19.9;18.4;12.9
45112;PMS5003;30873;53.908;27.576;2023-07-29T22:05:42;19.6;17.6;12.3
45112;PMS5003;30873;53.908;27.576;2023-07-29T22:10:10;21.2;18.9;12.9
45112;PMS5003;30873;53.908;27.576;2023-07-29T22:15:10;18.3;17.3;12.3
45112;PMS5003;30873;53.908;27.576;2023-07-29T22:20:59;19.7;18.3;13.2
45112;PMS5003;30873;53.908;27.576;2023-07-29T22:25:14;21.6;18.9;13.8
45112;PMS5003;30873;53.908;27.576;2023-07-29T22:30:58;20.1;18.8;13
45112;PMS5003;30873;53.908;27.576;2023-07-29T22:35:58;21.5;20.2;15.1
45112;PMS5003;30873;53.908;27.576;2023-07-29T22:40:42;27.5;25.1;19.1
45112;PMS5003;30873;53.908;27.576;2023-07-29T22:45:22;22;19.8;14.7
45112;PMS5003;30873;53.908;27.576;2023-07-29T22:50:10;21.8;20.9;14.8
45112;PMS5003;30873;53.908;27.576;2023-07-29T22:55:56;22.5;20.1;14.4
45112;PMS5003;30873;53.908;27.576;2023-07-29T23:00:58;21.9;20.4;14.7
45112;PMS5003;30873;53.908;27.576;2023-07-29T23:05:28;22.5;20.2;13.7
45112;PMS5003;30873;53.908;27.576;2023-07-29T23:10:59;23.7;20.3;14
45112;PMS5003;30873;53.908;27.576;2023-07-29T23:15:59;23;20.5;14.8
45112;PMS5003;30873;53.908;27.576;2023-07-29T23:20:42;22.8;21;15
45112;PMS5003;30873;53.908;27.576;2023-07-29T23:25:26;22.8;21.6;15.8
45112;PMS5003;30873;53.908;27.576;2023-07-29T23:30:40;24.5;22.9;16.8
45112;PMS5003;30873;53.908;27.576;2023-07-29T23:35:40;26.7;23.6;16.9
45112;PMS5003;30873;53.908;27.576;2023-07-29T23:40:10;25.2;22.7;16.1
45112;PMS5003;30873;53.908;27.576;2023-07-29T23:45:14;26;23.7;16.8
45112;PMS5003;30873;53.908;27.576;2023-07-29T23:50:10;26.7;23.8;16.8
45112;PMS5003;30873;53.908;27.576;2023-07-29T23:55:14;26.6;24.9;17.9
